createdAt,value
2023-02-15T00:00:11.884Z,101315.22
2023-02-15T00:02:40.062Z,101316.66
2023-02-15T00:05:09.660Z,101315.22
2023-02-15T00:07:37.887Z,101309.84
2023-02-15T00:10:07.853Z,101309.59
2023-02-15T00:12:35.351Z,101302.56
2023-02-15T00:15:04.997Z,101304.19
2023-02-15T00:17:33.375Z,101301.47
2023-02-15T00:20:02.830Z,101299.66
2023-02-15T00:22:30.282Z,101296.94
2023-02-15T00:24:57.688Z,101288.78
2023-02-15T00:27:30.874Z,101290.63
2023-02-15T00:29:59.288Z,101293.88
2023-02-15T00:32:28.003Z,101282.69
2023-02-15T00:34:57.185Z,101281.06
2023-02-15T00:37:24.756Z,101278.38
2023-02-15T00:39:58.869Z,101292.03
2023-02-15T00:42:29.444Z,101273.09
2023-02-15T00:44:56.921Z,101271.47
2023-02-15T00:47:25.782Z,101270.91
2023-02-15T00:49:53.312Z,101271.53
2023-02-15T00:52:21.760Z,101267.31
2023-02-15T00:54:49.136Z,101252.38
2023-02-15T00:57:16.630Z,101251.38
2023-02-15T00:59:44.121Z,101246.94
2023-02-15T01:02:11.538Z,101244.25
2023-02-15T01:04:39.179Z,101244.94
2023-02-15T01:07:07.465Z,101241.38
2023-02-15T01:09:35.282Z,101238.56
2023-02-15T01:12:02.392Z,101236.53
2023-02-15T01:14:29.916Z,101229.44
2023-02-15T01:16:57.344Z,101224.00
2023-02-15T01:19:24.769Z,101229.19
2023-02-15T01:21:52.338Z,101221.25
2023-02-15T01:24:20.774Z,101215.81
2023-02-15T01:26:48.248Z,101221.44
2023-02-15T01:29:16.664Z,101214.84
2023-02-15T01:31:44.269Z,101210.41
2023-02-15T01:34:11.528Z,101200.28
2023-02-15T01:36:39.015Z,101210.25
2023-02-15T01:39:09.020Z,101208.78
2023-02-15T01:41:36.420Z,101192.03
2023-02-15T01:44:53.042Z,101196.53
2023-02-15T01:47:49.689Z,101199.63
2023-02-15T01:50:25.558Z,101205.38
2023-02-15T01:53:13.934Z,101199.59
2023-02-15T01:55:49.285Z,101196.94
2023-02-15T01:58:16.932Z,101197.75
2023-02-15T02:00:46.180Z,101200.19
2023-02-15T02:03:14.220Z,101195.59
2023-02-15T02:05:42.281Z,101193.56
2023-02-15T02:08:11.037Z,101183.34
2023-02-15T02:10:38.428Z,101185.78
2023-02-15T02:13:07.947Z,101187.66
2023-02-15T02:15:49.084Z,101184.00
2023-02-15T02:18:27.241Z,101182.88
2023-02-15T02:21:08.867Z,101175.84
2023-02-15T02:23:42.074Z,101181.88
2023-02-15T02:26:36.455Z,101179.28
2023-02-15T02:29:44.818Z,101176.50
2023-02-15T02:32:46.191Z,101169.03
2023-02-15T02:35:19.905Z,101171.03
2023-02-15T02:38:09.125Z,101166.66
2023-02-15T02:41:02.483Z,101159.31
2023-02-15T02:43:41.467Z,101152.25
2023-02-15T02:46:14.397Z,101159.72
2023-02-15T02:48:42.324Z,101156.09
2023-02-15T02:51:09.800Z,101152.16
2023-02-15T02:53:37.548Z,101158.50
2023-02-15T02:56:15.374Z,101158.34
2023-02-15T02:58:53.085Z,101148.03
2023-02-15T03:01:36.878Z,101150.09
2023-02-15T03:04:11.524Z,101151.72
2023-02-15T03:06:57.744Z,101156.75
2023-02-15T03:09:44.162Z,101161.63
2023-02-15T03:12:18.946Z,101157.75
2023-02-15T03:14:55.384Z,101162.31
2023-02-15T03:17:25.247Z,101161.72
2023-02-15T03:19:56.928Z,101156.69
2023-02-15T03:22:37.042Z,101159.94
2023-02-15T03:25:57.140Z,101165.59
2023-02-15T03:28:32.013Z,101164.09
2023-02-15T03:31:04.843Z,101156.91
2023-02-15T03:33:34.412Z,101162.41
2023-02-15T03:36:02.162Z,101167.25
2023-02-15T03:38:49.204Z,101160.94
2023-02-15T03:41:19.520Z,101171.88
2023-02-15T03:43:56.665Z,101162.31
2023-02-15T03:46:32.538Z,101161.94
2023-02-15T03:49:10.728Z,101159.31
2023-02-15T03:51:41.387Z,101150.63
2023-02-15T03:54:36.017Z,101140.81
2023-02-15T03:57:21.996Z,101148.22
2023-02-15T04:00:08.258Z,101146.25
2023-02-15T04:02:44.442Z,101145.22
2023-02-15T04:05:11.741Z,101146.88
2023-02-15T04:07:39.942Z,101139.59
2023-02-15T04:10:27.816Z,101143.00
2023-02-15T04:12:55.303Z,101139.31
2023-02-15T04:15:43.316Z,101141.00
2023-02-15T04:18:11.780Z,101136.56
2023-02-15T04:20:57.791Z,101137.16
2023-02-15T04:23:44.837Z,101136.28
2023-02-15T04:26:12.005Z,101127.00
2023-02-15T04:28:40.527Z,101128.47
2023-02-15T04:31:08.237Z,101128.50
2023-02-15T04:33:37.068Z,101122.63
2023-02-15T04:36:06.521Z,101129.13
2023-02-15T04:38:33.980Z,101118.59
2023-02-15T04:41:03.355Z,101115.78
2023-02-15T04:43:31.941Z,101115.22
2023-02-15T04:46:00.336Z,101113.47
2023-02-15T04:48:27.909Z,101114.69
2023-02-15T04:50:55.366Z,101116.19
2023-02-15T04:53:22.991Z,101119.41
2023-02-15T04:55:52.360Z,101124.59
2023-02-15T04:58:20.760Z,101122.84
2023-02-15T05:00:48.257Z,101130.69
2023-02-15T05:03:15.484Z,101126.75
2023-02-15T05:05:42.922Z,101125.44
2023-02-15T05:08:20.510Z,101128.75
2023-02-15T05:10:50.203Z,101136.22
2023-02-15T05:13:19.594Z,101125.97
2023-02-15T05:15:51.437Z,101107.09
2023-02-15T05:18:20.335Z,101117.75
2023-02-15T05:20:48.447Z,101120.50
2023-02-15T05:23:16.210Z,101118.41
2023-02-15T05:26:09.497Z,101113.72
2023-02-15T05:28:37.879Z,101120.41
2023-02-15T05:31:15.096Z,101121.50
2023-02-15T05:33:42.931Z,101117.75
2023-02-15T05:36:11.492Z,101120.66
2023-02-15T05:38:38.912Z,101115.16
2023-02-15T05:41:10.894Z,101126.38
2023-02-15T05:43:39.832Z,101120.34
2023-02-15T05:46:07.827Z,101129.53
2023-02-15T05:48:35.997Z,101129.13
2023-02-15T05:51:12.645Z,101132.94
2023-02-15T05:53:41.148Z,101129.75
2023-02-15T05:56:10.658Z,101128.84
2023-02-15T05:58:40.159Z,101127.97
2023-02-15T06:01:11.362Z,101132.09
2023-02-15T06:03:38.752Z,101128.56
2023-02-15T06:06:10.913Z,101124.94
2023-02-15T06:08:44.273Z,101126.22
2023-02-15T06:11:12.154Z,101119.81
2023-02-15T06:13:45.320Z,101124.88
2023-02-15T06:16:12.220Z,101130.38
2023-02-15T06:18:39.843Z,101123.13
2023-02-15T06:21:07.233Z,101126.25
2023-02-15T06:23:34.759Z,101119.81
2023-02-15T06:26:02.396Z,101122.22
2023-02-15T06:28:29.895Z,101116.41
2023-02-15T06:30:57.294Z,101117.44
2023-02-15T06:33:25.668Z,101117.88
2023-02-15T06:35:53.132Z,101106.78
2023-02-15T06:38:21.558Z,101113.66
2023-02-15T06:40:48.971Z,101110.59
2023-02-15T06:43:16.382Z,101107.34
2023-02-15T06:45:44.851Z,101106.56
2023-02-15T06:48:12.572Z,101099.06
2023-02-15T06:50:39.927Z,101105.31
2023-02-15T06:53:07.289Z,101100.66
2023-02-15T06:55:34.688Z,101107.91
2023-02-15T06:58:02.157Z,101103.78
2023-02-15T07:00:30.616Z,101106.75
2023-02-15T07:02:59.469Z,101099.56
2023-02-15T07:05:32.560Z,101091.22
2023-02-15T07:08:01.662Z,101093.44
2023-02-15T07:10:29.183Z,101078.44
2023-02-15T07:12:56.729Z,101079.84
2023-02-15T07:15:24.273Z,101081.44
2023-02-15T07:17:51.984Z,101076.66
2023-02-15T07:20:24.156Z,101088.88
2023-02-15T07:22:52.238Z,101086.09
2023-02-15T07:25:20.808Z,101082.81
2023-02-15T07:27:48.289Z,101086.69
2023-02-15T07:30:17.806Z,101077.44
2023-02-15T07:33:05.435Z,101076.09
2023-02-15T07:35:48.356Z,101075.69
2023-02-15T07:38:16.988Z,101072.38
2023-02-15T07:40:45.163Z,101068.13
2023-02-15T07:43:14.176Z,101072.78
2023-02-15T07:45:41.644Z,101063.41
2023-02-15T07:48:08.929Z,101065.47
2023-02-15T07:50:36.425Z,101057.75
2023-02-15T07:53:05.567Z,101051.94
2023-02-15T07:55:32.973Z,101051.09
2023-02-15T07:58:00.094Z,101054.56
2023-02-15T08:00:27.863Z,101045.97
2023-02-15T08:03:15.262Z,101045.28
2023-02-15T08:05:45.609Z,101039.13
2023-02-15T08:08:31.045Z,101039.25
2023-02-15T08:11:22.133Z,101032.50
2023-02-15T08:13:57.390Z,101033.81
2023-02-15T08:16:32.155Z,101029.59
2023-02-15T08:19:02.010Z,101026.34
2023-02-15T08:21:30.898Z,101028.28
2023-02-15T08:23:59.179Z,101020.44
2023-02-15T08:26:29.081Z,101024.84
2023-02-15T08:28:57.177Z,101019.47
2023-02-15T08:31:25.877Z,101010.94
2023-02-15T08:33:55.214Z,101018.69
2023-02-15T08:36:28.320Z,101014.47
2023-02-15T08:38:58.264Z,101016.50
2023-02-15T08:41:27.904Z,101017.53
2023-02-15T08:43:56.627Z,101018.47
2023-02-15T08:46:26.974Z,101011.56
2023-02-15T08:48:54.489Z,101004.59
2023-02-15T08:51:25.409Z,101006.44
2023-02-15T08:53:54.909Z,101005.81
2023-02-15T08:56:25.822Z,101005.88
2023-02-15T08:58:54.687Z,101002.44
2023-02-15T09:01:25.241Z,101002.66
2023-02-15T09:03:56.932Z,101010.69
2023-02-15T09:06:25.148Z,101006.47
2023-02-15T09:08:53.320Z,101002.28
2023-02-15T09:11:26.436Z,101008.34
2023-02-15T09:13:59.263Z,101008.47
2023-02-15T09:16:30.932Z,101007.72
2023-02-15T09:19:07.916Z,100994.56
2023-02-15T09:21:37.894Z,100992.00
2023-02-15T09:24:08.016Z,100987.75
2023-02-15T09:26:41.759Z,100989.72
2023-02-15T09:29:10.132Z,100993.38
2023-02-15T09:31:50.147Z,101000.59
2023-02-15T09:34:20.570Z,100993.75
2023-02-15T09:36:49.111Z,100992.81
2023-02-15T09:39:19.288Z,100995.41
2023-02-15T09:42:04.550Z,100986.19
2023-02-15T09:44:53.329Z,100992.59
2023-02-15T09:47:45.756Z,100990.03
2023-02-15T09:50:27.805Z,100984.88
2023-02-15T09:53:13.952Z,100979.97
2023-02-15T09:55:55.559Z,100973.50
2023-02-15T09:58:56.637Z,100980.47
2023-02-15T10:01:40.616Z,100966.06
2023-02-15T10:04:27.428Z,100964.25
2023-02-15T10:06:58.152Z,100961.22
2023-02-15T10:09:36.315Z,100951.75
2023-02-15T10:12:12.577Z,100959.13
2023-02-15T10:15:18.043Z,100943.88
2023-02-15T10:18:03.425Z,100955.75
2023-02-15T10:21:09.922Z,100944.28
2023-02-15T10:23:57.766Z,100956.91
2023-02-15T10:26:34.342Z,100948.97
2023-02-15T10:29:10.532Z,100951.78
2023-02-15T10:31:55.354Z,100938.75
2023-02-15T10:34:39.842Z,100933.47
2023-02-15T10:37:31.749Z,100933.72
2023-02-15T10:40:21.886Z,100937.34
2023-02-15T10:42:57.939Z,100932.06
2023-02-15T10:45:48.291Z,100930.03
2023-02-15T10:48:43.599Z,100935.69
2023-02-15T10:51:38.268Z,100926.31
2023-02-15T10:54:31.808Z,100920.03
2023-02-15T10:57:37.911Z,100923.50
2023-02-15T11:00:11.137Z,100913.63
2023-02-15T11:02:59.480Z,100908.56
2023-02-15T11:05:32.930Z,100895.31
2023-02-15T11:08:05.310Z,100901.25
2023-02-15T11:10:38.994Z,100900.75
2023-02-15T11:13:17.780Z,100905.63
2023-02-15T11:15:50.618Z,100900.97
2023-02-15T11:18:29.507Z,100899.31
2023-02-15T11:21:05.699Z,100883.44
2023-02-15T11:23:36.610Z,100883.44
2023-02-15T11:26:15.857Z,100876.53
2023-02-15T11:28:52.376Z,100867.59
2023-02-15T11:31:47.196Z,100869.28
2023-02-15T11:34:28.686Z,100869.00
2023-02-15T11:37:02.889Z,100867.28
2023-02-15T11:39:33.079Z,100864.53
2023-02-15T11:42:18.113Z,100859.56
2023-02-15T11:45:26.879Z,100850.31
2023-02-15T11:47:54.728Z,100849.75
2023-02-15T11:50:25.768Z,100846.44
2023-02-15T11:52:57.891Z,100836.75
2023-02-15T11:55:26.079Z,100831.38
2023-02-15T11:58:00.766Z,100832.56
2023-02-15T12:01:00.870Z,100824.56
2023-02-15T12:03:49.145Z,100818.00
2023-02-15T12:06:26.311Z,100825.34
2023-02-15T12:09:03.963Z,100824.44
2023-02-15T12:11:37.019Z,100815.75
2023-02-15T12:14:10.710Z,100820.97
2023-02-15T12:16:47.949Z,100815.47
2023-02-15T12:19:42.144Z,100804.19
2023-02-15T12:22:33.081Z,100806.59
2023-02-15T12:25:21.073Z,100809.53
2023-02-15T12:27:49.346Z,100796.44
2023-02-15T12:30:36.155Z,100801.16
2023-02-15T12:33:18.191Z,100791.81
2023-02-15T12:35:45.698Z,100792.06
2023-02-15T12:38:13.903Z,100783.59
2023-02-15T12:40:41.443Z,100775.59
2023-02-15T12:43:37.946Z,100777.38
2023-02-15T12:46:27.761Z,100771.47
2023-02-15T12:49:21.065Z,100769.03
2023-02-15T12:51:51.750Z,100764.47
2023-02-15T12:54:52.542Z,100763.31
2023-02-15T12:57:33.176Z,100759.47
2023-02-15T13:00:07.365Z,100753.06
2023-02-15T13:03:06.506Z,100755.75
2023-02-15T13:05:45.139Z,100753.19
2023-02-15T13:08:23.613Z,100748.88
2023-02-15T13:11:03.603Z,100740.72
2023-02-15T13:13:35.719Z,100730.47
2023-02-15T13:16:15.181Z,100735.31
2023-02-15T13:18:46.255Z,100734.53
2023-02-15T13:21:32.493Z,100739.06
2023-02-15T13:24:05.902Z,100736.16
2023-02-15T13:26:35.627Z,100732.00
2023-02-15T13:29:09.955Z,100729.53
2023-02-15T13:31:37.706Z,100730.84
2023-02-15T13:34:18.394Z,100729.91
2023-02-15T13:37:02.306Z,100730.22
2023-02-15T13:40:09.451Z,100725.06
2023-02-15T13:42:46.751Z,100722.16
2023-02-15T13:45:32.184Z,100718.59
2023-02-15T13:48:10.182Z,100723.59
2023-02-15T13:51:17.497Z,100727.16
2023-02-15T13:54:00.204Z,100715.63
2023-02-15T13:56:46.156Z,100717.16
2023-02-15T13:59:44.040Z,100716.38
2023-02-15T14:02:40.266Z,100713.63
2023-02-15T14:05:27.206Z,100722.25
2023-02-15T14:08:15.093Z,100725.91
2023-02-15T14:10:58.751Z,100727.75
2023-02-15T14:13:30.636Z,100721.56
2023-02-15T14:16:12.698Z,100717.63
2023-02-15T14:18:57.196Z,100720.25
2023-02-15T14:21:35.999Z,100707.97
2023-02-15T14:24:24.502Z,100714.06
2023-02-15T14:27:21.738Z,100714.13
2023-02-15T14:29:51.206Z,100714.19
2023-02-15T14:32:25.284Z,100715.13
2023-02-15T14:35:01.424Z,100710.41
2023-02-15T14:37:48.164Z,100715.97
2023-02-15T14:40:42.985Z,100710.00
2023-02-15T14:43:21.915Z,100696.50
2023-02-15T14:46:18.017Z,100702.16
2023-02-15T14:48:53.261Z,100704.47
2023-02-15T14:51:47.057Z,100698.97
2023-02-15T14:54:23.217Z,100690.81
2023-02-15T14:57:02.673Z,100708.75
2023-02-15T14:59:33.261Z,100701.22
2023-02-15T15:02:13.270Z,100701.44
2023-02-15T15:04:57.257Z,100707.13
2023-02-15T15:07:24.295Z,100700.66
2023-02-15T15:10:21.940Z,100707.56
2023-02-15T15:12:54.450Z,100709.34
2023-02-15T15:15:33.433Z,100700.38
2023-02-15T15:18:09.461Z,100698.28
2023-02-15T15:20:49.552Z,100691.47
2023-02-15T15:23:21.570Z,100692.25
2023-02-15T15:25:55.263Z,100690.78
2023-02-15T15:28:34.623Z,100697.53
2023-02-15T15:31:10.937Z,100691.44
2023-02-15T15:33:56.423Z,100688.72
2023-02-15T15:36:43.050Z,100673.06
2023-02-15T15:39:39.104Z,100681.66
2023-02-15T15:42:24.620Z,100682.03
2023-02-15T15:45:29.558Z,100676.75
2023-02-15T15:48:07.035Z,100684.94
2023-02-15T15:50:42.503Z,100683.84
2023-02-15T15:53:23.186Z,100680.00
2023-02-15T15:55:57.386Z,100677.84
2023-02-15T15:58:26.265Z,100682.28
2023-02-15T16:01:04.778Z,100680.25
2023-02-15T16:03:33.337Z,100673.53
2023-02-15T16:06:02.274Z,100671.22
2023-02-15T16:08:40.067Z,100674.34
2023-02-15T16:11:34.374Z,100670.09
2023-02-15T16:14:19.341Z,100670.34
2023-02-15T16:16:54.780Z,100677.50
2023-02-15T16:19:27.472Z,100678.50
2023-02-15T16:21:58.947Z,100682.84
2023-02-15T16:24:57.498Z,100674.31
2023-02-15T16:27:45.994Z,100678.69
2023-02-15T16:30:30.661Z,100673.47
2023-02-15T16:33:12.957Z,100671.81
2023-02-15T16:36:04.570Z,100670.16
2023-02-15T16:38:44.673Z,100665.78
2023-02-15T16:41:20.996Z,100667.53
2023-02-15T16:43:52.937Z,100668.41
2023-02-15T16:46:42.176Z,100660.63
2023-02-15T16:49:23.702Z,100660.56
2023-02-15T16:52:04.892Z,100664.94
2023-02-15T16:54:34.260Z,100666.75
2023-02-15T16:57:04.014Z,100666.75
2023-02-15T16:59:48.554Z,100656.25
2023-02-15T17:02:43.127Z,100655.38
2023-02-15T17:05:17.408Z,100665.03
2023-02-15T17:07:56.522Z,100658.06
2023-02-15T17:10:37.871Z,100658.13
2023-02-15T17:13:13.860Z,100657.28
2023-02-15T17:16:03.262Z,100656.38
2023-02-15T17:18:32.627Z,100652.91
2023-02-15T17:21:26.453Z,100652.91
2023-02-15T17:24:02.101Z,100649.44
2023-02-15T17:26:35.952Z,100652.91
2023-02-15T17:29:30.447Z,100642.44
2023-02-15T17:32:01.113Z,100648.50
2023-02-15T17:34:52.577Z,100646.78
2023-02-15T17:37:30.522Z,100651.03
2023-02-15T17:40:01.813Z,100648.44
2023-02-15T17:42:37.072Z,100648.41
2023-02-15T17:45:07.006Z,100652.78
2023-02-15T17:47:35.260Z,100647.44
2023-02-15T17:50:06.460Z,100653.59
2023-02-15T17:52:34.707Z,100650.09
2023-02-15T17:55:31.785Z,100656.19
2023-02-15T17:58:00.969Z,100650.94
2023-02-15T18:00:47.923Z,100647.44
2023-02-15T18:03:35.881Z,100647.34
2023-02-15T18:06:24.031Z,100645.53
2023-02-15T18:09:12.568Z,100655.00
2023-02-15T18:11:41.342Z,100648.91
2023-02-15T18:14:12.457Z,100647.03
2023-02-15T18:16:48.242Z,100642.69
2023-02-15T18:19:29.912Z,100640.06
2023-02-15T18:22:04.149Z,100641.72
2023-02-15T18:24:32.627Z,100644.28
2023-02-15T18:27:00.472Z,100642.53
2023-02-15T18:29:28.701Z,100639.06
2023-02-15T18:32:00.703Z,100641.59
2023-02-15T18:34:34.969Z,100627.72
2023-02-15T18:37:32.475Z,100634.47
2023-02-15T18:40:04.785Z,100636.22
2023-02-15T18:42:36.896Z,100627.47
2023-02-15T18:45:18.837Z,100627.38
2023-02-15T18:47:48.038Z,100622.91
2023-02-15T18:50:19.866Z,100613.28
2023-02-15T18:52:52.701Z,100621.06
2023-02-15T18:55:26.885Z,100598.34
2023-02-15T18:57:57.779Z,100612.19
2023-02-15T19:00:29.453Z,100607.81
2023-02-15T19:02:58.046Z,100615.53
2023-02-15T19:05:29.305Z,100609.47
2023-02-15T19:08:04.226Z,100607.78
2023-02-15T19:10:37.020Z,100610.47
2023-02-15T19:13:10.533Z,100602.69
2023-02-15T19:15:39.379Z,100601.81
2023-02-15T19:18:17.871Z,100604.34
2023-02-15T19:20:48.848Z,100604.28
2023-02-15T19:23:28.724Z,100610.28
2023-02-15T19:25:58.663Z,100595.53
2023-02-15T19:28:34.828Z,100598.13
2023-02-15T19:31:04.764Z,100594.66
2023-02-15T19:33:37.428Z,100591.81
2023-02-15T19:36:17.911Z,100591.88
2023-02-15T19:38:52.153Z,100591.72
2023-02-15T19:41:32.558Z,100586.50
2023-02-15T19:44:10.296Z,100577.84
2023-02-15T19:46:41.012Z,100579.53
2023-02-15T19:49:11.800Z,100575.09
2023-02-15T19:51:41.257Z,100569.00
2023-02-15T19:54:46.271Z,100572.44
2023-02-15T19:57:20.983Z,100568.16
2023-02-15T19:59:49.484Z,100575.09
2023-02-15T20:02:24.221Z,100567.28
2023-02-15T20:04:53.184Z,100567.22
2023-02-15T20:07:30.418Z,100567.22
2023-02-15T20:09:58.991Z,100571.50
2023-02-15T20:12:30.474Z,100560.94
2023-02-15T20:15:03.152Z,100563.59
2023-02-15T20:17:32.127Z,100562.78
2023-02-15T20:20:02.517Z,100559.25
2023-02-15T20:22:31.036Z,100553.91
2023-02-15T20:25:00.080Z,100558.13
2023-02-15T20:27:36.439Z,100551.34
2023-02-15T20:30:08.596Z,100544.25
2023-02-15T20:32:38.142Z,100539.03
2023-02-15T20:35:07.443Z,100547.66
2023-02-15T20:37:37.086Z,100541.59
2023-02-15T20:40:28.492Z,100547.66
2023-02-15T20:42:57.408Z,100540.78
2023-02-15T20:45:31.899Z,100534.75
2023-02-15T20:48:02.707Z,100535.56
2023-02-15T20:50:34.309Z,100540.72
2023-02-15T20:53:03.903Z,100542.47
2023-02-15T20:55:33.219Z,100542.44
2023-02-15T20:58:01.884Z,100533.81
2023-02-15T21:00:32.199Z,100537.16
2023-02-15T21:03:02.701Z,100543.16
2023-02-15T21:05:34.516Z,100530.06
2023-02-15T21:08:02.648Z,100525.81
2023-02-15T21:10:34.206Z,100525.81
2023-02-15T21:13:05.414Z,100531.78
2023-02-15T21:15:40.973Z,100532.75
2023-02-15T21:18:20.983Z,100541.09
2023-02-15T21:20:53.559Z,100532.47
2023-02-15T21:23:39.777Z,100529.13
2023-02-15T21:26:18.400Z,100531.78
2023-02-15T21:28:49.452Z,100538.31
2023-02-15T21:31:23.308Z,100535.47
2023-02-15T21:33:52.775Z,100529.41
2023-02-15T21:36:24.546Z,100526.16
2023-02-15T21:38:54.580Z,100521.84
2023-02-15T21:41:44.459Z,100520.19
2023-02-15T21:44:42.980Z,100519.28
2023-02-15T21:47:46.771Z,100518.44
2023-02-15T21:50:41.502Z,100521.84
2023-02-15T21:53:14.697Z,100513.16
2023-02-15T21:55:44.769Z,100516.63
2023-02-15T21:58:27.613Z,100511.25
2023-02-15T22:00:59.430Z,100514.59
2023-02-15T22:03:32.086Z,100509.47
2023-02-15T22:06:01.029Z,100506.78
2023-02-15T22:08:29.461Z,100518.00
2023-02-15T22:10:57.749Z,100513.84
2023-02-15T22:13:34.353Z,100508.75
2023-02-15T22:16:07.669Z,100520.66
2023-02-15T22:18:37.056Z,100514.84
2023-02-15T22:21:05.827Z,100514.84
2023-02-15T22:23:33.594Z,100509.34
2023-02-15T22:26:06.925Z,100516.41
2023-02-15T22:28:35.927Z,100508.72
2023-02-15T22:31:07.598Z,100503.44
2023-02-15T22:33:35.538Z,100501.38
2023-02-15T22:36:03.008Z,100491.75
2023-02-15T22:38:30.768Z,100504.22
2023-02-15T22:41:04.476Z,100504.09
2023-02-15T22:43:39.836Z,100492.75
2023-02-15T22:46:19.706Z,100492.81
2023-02-15T22:48:48.837Z,100498.69
2023-02-15T22:51:18.271Z,100495.34
2023-02-15T22:53:45.755Z,100492.88
2023-02-15T22:56:26.787Z,100494.53
2023-02-15T22:59:01.667Z,100501.22
2023-02-15T23:01:36.188Z,100504.88
2023-02-15T23:04:04.218Z,100505.22
2023-02-15T23:06:34.632Z,100501.69
2023-02-15T23:09:02.024Z,100496.75
2023-02-15T23:11:30.523Z,100503.56
2023-02-15T23:13:57.961Z,100504.22
2023-02-15T23:16:25.417Z,100497.38
2023-02-15T23:18:53.121Z,100497.56
2023-02-15T23:21:28.320Z,100494.97
2023-02-15T23:23:59.478Z,100494.03
2023-02-15T23:26:31.329Z,100487.09
2023-02-15T23:29:01.281Z,100487.88
2023-02-15T23:31:34.158Z,100479.22
2023-02-15T23:34:07.466Z,100475.16
2023-02-15T23:36:38.042Z,100478.63
2023-02-15T23:39:38.419Z,100475.09
2023-02-15T23:42:19.872Z,100476.91
2023-02-15T23:44:53.572Z,100474.28
2023-02-15T23:47:46.314Z,100480.16
2023-02-15T23:50:22.185Z,100475.91
2023-02-15T23:52:50.684Z,100471.50
2023-02-15T23:55:19.057Z,100480.25
2023-02-15T23:57:47.352Z,100475.16
